Nearby METAR Reports

 

EGTE - Exeter Airport, United Kingdom
Distance from station: S 19km
Updated: 21/01/2020 00:20
Clear
Clear
 Wind from varies
Wind: varies 6 km/h
Temperature: 0°C
Dew Point: 0°C
Humidity: 100%
Barometer: 1045 hPa
Summary: Clear
Visibility: greater than 10 km
2020/01/21 00:20 EGTE 210020Z VRB03KT CAVOK M00/M00 Q1045
EGDY - Yeovilton (navy), United Kingdom
Distance from station: ENE 55km
Updated: 20/01/2020 23:50
Mist, Partly cloudy
Mist, Partly cloudy
 Wind from ESE
Wind: ESE 6 km/h
Temperature: -2°C
Dew Point: -2°C
Humidity: 100%
Barometer: 1045 hPa
Summary: Mist
Clouds: Partly cloudy
Visibility: 7 km
Cloud details: Partly cloudy 91 m
2020/01/20 23:50 EGDY 202350Z 12003KT 7000 BR SCT003 M02/M02 Q1045 YLO2
 
EGFF - Cardiff-Wales Ar, United Kingdom
Distance from station: N 56km
Updated: 21/01/2020 00:20
Clear
Clear
 Wind from N
Wind: N 6 km/h
Temperature: 2°C
Dew Point: 2°C
Humidity: 100%
Barometer: 1044 hPa
Clouds: Clear
Visibility: 10 km
2020/01/21 00:20 EGFF 210020Z AUTO 36003KT 9999 NCD 02/02 Q1044
EGDX - St Athan Raf, United Kingdom
Distance from station: N 58km
Updated: 01/04/2019 13:50
NOT Current
Clear
Clear
 Wind from E
Wind: E 15 km/h
Temperature: 11°C
Dew Point: 5°C
Humidity: 67%
Barometer: 1019 hPa
Clouds: Clear
Visibility: 10 km
2019/04/01 12:50 EGDX 011250Z AUTO 10008KT 9999 NCD 11/05 Q1019
 
EGGD - Bristol/Lulsgate, United Kingdom
Distance from station: NE 71km
Updated: 21/01/2020 00:20
Clear
Clear
 Wind from NW
Wind: NW 4 km/h
Temperature: 2°C
Dew Point: 2°C
Humidity: 100%
Barometer: 1044 hPa
Clouds: Clear
Visibility: 10 km
2020/01/21 00:20 EGGD 210020Z AUTO 31002KT 9999 NCD 02/02 Q1044